Time;durP1;ratioP1;P1;durP2;ratioP2;P2;SDS_P1;SDS_P2;PMS_P1;PMS_P2;Temp;Humidity;BMP_temperature;BMP_pressure;BME280_temperature;BME280_humidity;BME280_pressure;Samples;Min_cycle;Max_cycle;Signal;HPM_P1;HPM_P2
2024/04/06 00:00:19;;;;;;;2.65;1.40;;;;;;;14.78;100.00;95937.59;1023154;29;20102;-71
2024/04/06 00:00:50;;;;;;;3.85;1.60;;;;;;;14.78;100.00;95940.22;1027318;28;20026;-71
2024/04/06 00:01:24;;;;;;;3.20;1.20;;;;;;;14.76;100.00;95941.59;1027225;28;20381;-71
2024/04/06 00:01:54;;;;;;;1.40;1.27;;;;;;;14.74;100.00;95939.22;1031734;28;20897;-72
2024/04/06 00:02:25;;;;;;;1.83;1.00;;;;;;;14.70;100.00;95930.31;1030490;28;20026;-72
2024/04/06 00:02:55;;;;;;;1.50;1.40;;;;;;;14.75;100.00;95940.78;1019949;28;20028;-71
2024/04/06 00:03:26;;;;;;;1.38;1.02;;;;;;;14.76;100.00;95936.31;1019284;29;20027;-71
2024/04/06 00:03:56;;;;;;;2.85;1.40;;;;;;;14.77;100.00;95935.25;1019457;29;20015;-71
2024/04/06 00:04:27;;;;;;;3.05;1.40;;;;;;;14.77;100.00;95935.25;1015335;29;20024;-72
2024/04/06 00:04:57;;;;;;;1.50;1.10;;;;;;;14.77;100.00;95929.97;1019225;28;20024;-71
2024/04/06 00:05:28;;;;;;;3.67;1.27;;;;;;;14.76;100.00;95937.09;1026305;28;20031;-71
2024/04/06 00:05:58;;;;;;;3.83;1.42;;;;;;;14.76;100.00;95929.19;1023111;28;20027;-73
2024/04/06 00:06:29;;;;;;;3.75;1.45;;;;;;;14.74;100.00;95927.88;1031067;28;20033;-72
2024/04/06 00:06:59;;;;;;;3.25;1.30;;;;;;;14.74;100.00;95928.66;1031049;28;20404;-71
2024/04/06 00:07:30;;;;;;;3.28;1.02;;;;;;;14.70;100.00;95924.25;1030823;28;20037;-72
2024/04/06 00:08:00;;;;;;;5.13;1.23;;;;;;;14.74;100.00;95922.59;1035078;28;20025;-72
2024/04/06 00:08:30;;;;;;;1.98;1.40;;;;;;;14.74;100.00;95928.66;1031069;28;20034;-72
2024/04/06 00:09:01;;;;;;;2.35;1.20;;;;;;;14.73;100.00;95923.69;1030892;28;20062;-71
2024/04/06 00:09:31;;;;;;;1.58;1.00;;;;;;;14.78;100.00;95932.31;1029254;28;20065;-71
2024/04/06 00:10:02;;;;;;;2.50;1.35;;;;;;;14.73;100.00;95916.53;1029772;28;20621;-71
2024/04/06 00:10:32;;;;;;;2.15;1.25;;;;;;;14.77;100.00;95936.03;1031030;28;20033;-71
2024/04/06 00:11:03;;;;;;;5.05;1.48;;;;;;;14.76;100.00;95931.81;1025947;28;20026;-71
2024/04/06 00:11:34;;;;;;;3.15;1.40;;;;;;;14.76;100.00;95929.19;1026829;28;20034;-71
2024/04/06 00:12:04;;;;;;;1.85;1.20;;;;;;;14.69;100.00;95915.53;1022946;28;20038;-71
2024/04/06 00:12:35;;;;;;;2.25;1.00;;;;;;;14.75;100.00;95930.22;1023062;28;20537;-72
2024/04/06 00:13:05;;;;;;;3.28;1.20;;;;;;;14.73;100.00;95924.47;1021107;28;20023;-72
2024/04/06 00:13:36;;;;;;;3.10;1.30;;;;;;;14.73;100.00;95929.75;1022797;28;20030;-71
2024/04/06 00:14:06;;;;;;;3.08;1.65;;;;;;;14.66;100.00;95920.59;1020328;28;20059;-72
2024/04/06 00:14:36;;;;;;;2.03;0.98;;;;;;;14.72;100.00;95930.81;1023082;28;20199;-71
2024/04/06 00:15:07;;;;;;;1.38;1.27;;;;;;;14.73;100.00;95936.88;1026913;28;20027;-72
2024/04/06 00:15:37;;;;;;;3.25;1.20;;;;;;;14.70;100.00;95935.59;1030905;28;20619;-72
2024/04/06 00:16:08;;;;;;;2.33;1.25;;;;;;;14.70;100.00;95932.94;1035095;28;20048;-72
2024/04/06 00:16:38;;;;;;;3.17;1.15;;;;;;;14.66;100.00;95931.94;1035116;28;20017;-71
2024/04/06 00:17:09;;;;;;;2.80;1.40;;;;;;;14.65;100.00;95933.00;1030950;28;20022;-71
2024/04/06 00:17:40;;;;;;;1.70;1.13;;;;;;;14.66;100.00;95936.44;1026786;28;20031;-71
2024/04/06 00:18:10;;;;;;;2.83;1.48;;;;;;;14.61;100.00;95942.56;1022904;28;20019;-71
2024/04/06 00:18:41;;;;;;;3.38;1.27;;;;;;;14.58;100.00;95935.19;1027039;28;20039;-71
2024/04/06 00:19:12;;;;;;;2.97;1.30;;;;;;;14.59;100.00;95937.56;1026289;28;20015;-71
2024/04/06 00:19:42;;;;;;;2.20;1.10;;;;;;;14.60;100.00;95938.34;1030723;28;20029;-71
2024/04/06 00:20:13;;;;;;;2.25;1.20;;;;;;;14.58;100.00;95943.13;1034918;28;20029;-71
2024/04/06 00:20:43;;;;;;;6.95;1.25;;;;;;;14.55;100.00;95933.94;1033773;28;20018;-71
2024/04/06 00:21:13;;;;;;;2.35;1.40;;;;;;;14.59;100.00;95942.06;1038750;28;20028;-71
2024/04/06 00:21:45;;;;;;;1.55;1.10;;;;;;;14.59;100.00;95947.34;1037738;28;20046;-71
2024/04/06 00:22:15;;;;;;;2.88;1.35;;;;;;;14.59;100.00;95934.16;1034983;28;20022;-71
2024/04/06 00:22:46;;;;;;;3.13;1.02;;;;;;;14.63;100.00;95937.78;1027564;28;20015;-71
2024/04/06 00:23:17;;;;;;;1.08;0.98;;;;;;;14.61;100.00;95937.28;1031143;28;20136;-71
2024/04/06 00:23:47;;;;;;;3.85;1.15;;;;;;;14.59;100.00;95932.28;1026835;28;20476;-71
2024/04/06 00:24:18;;;;;;;1.98;1.30;;;;;;;14.59;100.00;95940.22;1027133;28;20023;-71
2024/04/06 00:24:48;;;;;;;1.85;1.10;;;;;;;14.60;100.00;95938.34;1034889;28;20014;-71
2024/04/06 00:25:19;;;;;;;2.17;1.42;;;;;;;14.55;100.00;95922.56;1027179;28;20023;-72
2024/04/06 00:25:49;;;;;;;3.20;1.00;;;;;;;14.63;100.00;95934.38;1030792;28;20106;-71
2024/04/06 00:26:19;;;;;;;2.83;1.20;;;;;;;14.61;100.00;95934.63;1026842;28;20074;-72
2024/04/06 00:26:50;;;;;;;2.70;0.90;;;;;;;14.65;100.00;95929.56;1026925;28;20026;-72
2024/04/06 00:27:21;;;;;;;4.47;1.40;;;;;;;14.64;100.00;95928.00;1031109;28;20015;-71
2024/04/06 00:27:51;;;;;;;3.25;1.42;;;;;;;14.60;100.00;95925.16;1031050;28;20022;-72
2024/04/06 00:28:22;;;;;;;1.90;1.27;;;;;;;14.61;100.00;95929.34;1026707;28;20026;-71
2024/04/06 00:28:53;;;;;;;4.88;1.38;;;;;;;14.60;100.00;95925.16;1031207;28;20114;-71
2024/04/06 00:29:23;;;;;;;2.58;1.50;;;;;;;14.55;100.00;95922.56;1030535;28;20563;-71
2024/04/06 00:29:53;;;;;;;2.00;1.13;;;;;;;14.56;100.00;95926.78;1027228;28;20495;-71
2024/04/06 00:30:24;;;;;;;2.17;1.08;;;;;;;14.57;100.00;95931.00;1026552;28;20030;-72
2024/04/06 00:30:54;;;;;;;3.15;1.40;;;;;;;14.56;100.00;95932.06;1022997;28;20019;-72
2024/04/06 00:31:25;;;;;;;3.45;1.30;;;;;;;14.58;100.00;95932.56;1022927;28;20029;-71
2024/04/06 00:31:55;;;;;;;1.95;1.25;;;;;;;14.51;100.00;95924.19;1022883;28;20090;-71
2024/04/06 00:32:26;;;;;;;3.70;1.63;;;;;;;14.53;100.00;95933.41;1030727;28;20026;-72
2024/04/06 00:32:56;;;;;;;2.65;1.10;;;;;;;14.53;100.00;95932.63;1026969;28;20026;-71
2024/04/06 00:33:27;;;;;;;3.80;1.52;;;;;;;14.54;100.00;95934.19;1026922;28;20011;-73
2024/04/06 00:34:01;;;;;;;1.75;1.23;;;;;;;14.54;100.00;95940.25;1026713;28;20030;-71
2024/04/06 00:34:31;;;;;;;1.85;1.20;;;;;;;14.54;100.00;95932.34;1023339;28;20433;-71
2024/04/06 00:35:02;;;;;;;1.80;1.25;;;;;;;14.48;100.00;95922.88;1023994;28;20035;-72
2024/04/06 00:35:32;;;;;;;2.47;1.20;;;;;;;14.58;100.00;95932.56;1031662;28;20038;-71
2024/04/06 00:36:03;;;;;;;1.95;1.38;;;;;;;14.57;100.00;95928.34;1034773;28;20025;-71
2024/04/06 00:36:34;;;;;;;1.98;1.00;;;;;;;14.56;100.00;95932.06;1034853;28;20113;-71
2024/04/06 00:37:06;;;;;;;2.42;1.42;;;;;;;14.54;100.00;95934.97;1034755;28;20022;-72
2024/04/06 00:37:37;;;;;;;2.65;1.30;;;;;;;14.50;100.00;95930.53;1027393;28;20031;-71
2024/04/06 00:38:07;;;;;;;2.75;1.13;;;;;;;14.52;100.00;95936.31;1024699;28;20027;-71
2024/04/06 00:38:38;;;;;;;2.45;1.40;;;;;;;14.50;100.00;95931.34;1026886;28;20027;-71
2024/04/06 00:39:08;;;;;;;1.55;1.08;;;;;;;14.51;100.00;95932.13;1024644;28;20092;-71
2024/04/06 00:39:38;;;;;;;3.95;1.20;;;;;;;14.51;100.00;95930.25;1031492;28;20023;-72
2024/04/06 00:40:09;;;;;;;3.22;1.30;;;;;;;14.52;100.00;95938.97;1036009;28;20018;-71
2024/04/06 00:40:40;;;;;;;3.92;1.20;;;;;;;14.52;100.00;95938.97;1030930;28;20085;-71
2024/04/06 00:41:10;;;;;;;2.67;0.90;;;;;;;14.46;100.00;95932.16;1026968;28;20335;-71
2024/04/06 00:41:41;;;;;;;4.38;1.33;;;;;;;14.50;100.00;95933.97;1026943;28;20128;-71
2024/04/06 00:42:11;;;;;;;1.60;1.00;;;;;;;14.46;100.00;95934.81;1027417;28;20030;-71
2024/04/06 00:42:41;;;;;;;1.58;1.05;;;;;;;14.47;100.00;95944.28;1026505;28;20022;-72
2024/04/06 00:43:12;;;;;;;2.72;1.27;;;;;;;14.45;100.00;95943.78;1030998;28;20018;-71
2024/04/06 00:43:42;;;;;;;4.32;1.40;;;;;;;14.45;100.00;95949.06;1027868;28;20496;-72
2024/04/06 00:44:14;;;;;;;3.83;1.38;;;;;;;14.45;100.00;95949.84;1027013;28;20409;-73
2024/04/06 00:44:44;;;;;;;1.80;1.25;;;;;;;14.40;100.00;95931.44;1026726;28;20027;-71
2024/04/06 00:45:14;;;;;;;2.17;1.00;;;;;;;14.42;100.00;95936.41;1026839;28;20023;-71
2024/04/06 00:45:45;;;;;;;2.10;1.20;;;;;;;14.46;100.00;95948.00;1019905;29;20039;-71
2024/04/06 00:46:16;;;;;;;2.60;1.30;;;;;;;14.46;100.00;95948.00;1022843;29;20023;-72
2024/04/06 00:46:46;;;;;;;1.58;1.05;;;;;;;14.43;100.00;95944.06;1019061;29;20111;-71
2024/04/06 00:47:16;;;;;;;2.47;1.33;;;;;;;14.38;100.00;95938.84;1023357;28;20094;-71
2024/04/06 00:47:47;;;;;;;2.00;1.33;;;;;;;14.44;100.00;95942.22;1030913;28;20071;-71
2024/04/06 00:48:17;;;;;;;3.40;1.40;;;;;;;14.44;100.00;95945.63;1026835;28;20038;-70
2024/04/06 00:48:48;;;;;;;1.73;1.05;;;;;;;14.48;100.00;95946.63;1030614;28;20114;-71
2024/04/06 00:49:18;;;;;;;2.15;1.33;;;;;;;14.45;100.00;95951.69;1026467;28;20034;-72
2024/04/06 00:49:49;;;;;;;2.42;1.10;;;;;;;14.42;100.00;95942.50;1026990;28;20046;-71
2024/04/06 00:50:19;;;;;;;4.40;1.40;;;;;;;14.40;100.00;95944.63;1023064;29;20049;-71
2024/04/06 00:50:51;;;;;;;2.63;1.08;;;;;;;14.44;100.00;95944.84;1018822;28;20016;-69
2024/04/06 00:51:22;;;;;;;1.88;1.48;;;;;;;14.43;100.00;95943.28;1022946;29;20041;-71
2024/04/06 00:51:52;;;;;;;1.80;1.45;;;;;;;14.40;100.00;95944.63;1023522;28;20023;-70
2024/04/06 00:52:22;;;;;;;1.52;1.08;;;;;;;14.39;100.00;95941.22;1026760;28;20027;-71
2024/04/06 00:52:54;;;;;;;2.10;1.30;;;;;;;14.38;100.00;95944.94;1022135;28;20079;-71
2024/04/06 00:53:25;;;;;;;4.10;1.35;;;;;;;14.37;100.00;95945.97;1030857;28;20093;-71
2024/04/06 00:53:55;;;;;;;2.65;1.33;;;;;;;14.31;100.00;95936.53;1030681;28;20026;-71
2024/04/06 00:54:26;;;;;;;1.52;1.15;;;;;;;14.38;100.00;95946.75;1027135;28;20092;-72
2024/04/06 00:54:56;;;;;;;1.70;1.30;;;;;;;14.36;100.00;95941.00;1026835;28;20022;-71
2024/04/06 00:55:27;;;;;;;2.00;1.08;;;;;;;14.35;100.00;95940.19;1030051;28;20085;-71
2024/04/06 00:55:58;;;;;;;2.58;1.17;;;;;;;14.36;100.00;95943.63;1027025;28;20563;-71
2024/04/06 00:56:28;;;;;;;2.85;1.30;;;;;;;14.33;100.00;95944.19;1026905;28;20492;-71
2024/04/06 00:56:58;;;;;;;3.75;1.27;;;;;;;14.26;100.00;95943.75;1026758;28;20034;-72
2024/04/06 00:57:29;;;;;;;3.38;0.95;;;;;;;14.24;100.00;95938.72;1018873;29;20065;-71
2024/04/06 00:58:00;;;;;;;4.75;1.30;;;;;;;14.18;100.00;95941.69;1022808;28;20633;-71
2024/04/06 00:58:30;;;;;;;1.48;1.00;;;;;;;14.27;100.00;95956.63;1024373;28;20042;-71
2024/04/06 00:59:01;;;;;;;1.30;1.20;;;;;;;14.24;100.00;95949.28;1026762;28;20042;-71
2024/04/06 00:59:32;;;;;;;1.33;1.10;;;;;;;14.25;100.00;95948.22;1026348;28;20484;-71
2024/04/06 01:00:03;;;;;;;2.65;1.10;;;;;;;14.26;100.00;95941.88;1026778;28;20031;-71
2024/04/06 01:00:34;;;;;;;1.80;1.25;;;;;;;14.24;100.00;95948.50;1023597;28;20540;-73
2024/04/06 01:01:04;;;;;;;2.13;1.25;;;;;;;14.17;100.00;95940.91;1019087;29;20028;-71
2024/04/06 01:01:34;;;;;;;3.08;1.48;;;;;;;14.22;100.00;95954.06;1022698;28;20106;-72
2024/04/06 01:02:05;;;;;;;2.65;1.20;;;;;;;14.18;100.00;95946.97;1026879;28;20037;-72
2024/04/06 01:02:37;;;;;;;1.42;1.25;;;;;;;14.22;100.00;95954.06;1022926;29;20035;-71
2024/04/06 01:03:07;;;;;;;3.45;1.30;;;;;;;14.22;100.00;95959.34;1022947;29;20039;-72
2024/04/06 01:03:38;;;;;;;4.63;1.58;;;;;;;14.22;100.00;95950.63;1022828;29;20055;-71
2024/04/06 01:04:08;;;;;;;2.03;1.20;;;;;;;14.21;100.00;95965.69;1022886;29;20023;-72
2024/04/06 01:04:39;;;;;;;4.13;1.38;;;;;;;14.15;100.00;95954.41;1023347;28;20027;-72
2024/04/06 01:05:10;;;;;;;3.33;1.60;;;;;;;14.20;100.00;95961.47;1027282;28;20033;-71
2024/04/06 01:05:40;;;;;;;2.25;1.20;;;;;;;14.21;100.00;95960.41;1026770;28;20031;-71
2024/04/06 01:06:11;;;;;;;1.45;1.20;;;;;;;14.20;100.00;95966.75;1026723;28;20081;-71
2024/04/06 01:06:41;;;;;;;2.65;1.42;;;;;;;14.19;100.00;95965.19;1018961;29;20040;-72
2024/04/06 01:07:12;;;;;;;1.40;1.20;;;;;;;14.16;100.00;95971.03;1027031;28;20034;-72
2024/04/06 01:07:45;;;;;;;2.35;1.20;;;;;;;14.15;100.00;95977.34;1026815;28;20035;-72
2024/04/06 01:08:16;;;;;;;2.97;2.35;;;;;;;14.12;100.00;95975.28;1023133;28;20141;-72
2024/04/06 01:08:47;;;;;;;3.08;1.55;;;;;;;14.07;100.00;95984.03;1029976;28;20108;-71
2024/04/06 01:09:17;;;;;;;2.90;1.30;;;;;;;14.04;100.00;95987.22;1014261;29;20040;-71
2024/04/06 01:09:47;;;;;;;2.92;1.75;;;;;;;14.04;100.00;95986.44;1019012;28;20058;-71
2024/04/06 01:10:18;;;;;;;4.43;1.33;;;;;;;14.00;100.00;95982.78;1026921;28;20019;-71
2024/04/06 01:10:49;;;;;;;3.33;1.48;;;;;;;14.01;100.00;95982.50;1026838;28;20030;-71
2024/04/06 01:11:20;;;;;;;2.90;1.52;;;;;;;14.01;100.00;95989.63;1026923;28;20027;-72
2024/04/06 01:11:51;;;;;;;1.77;1.60;;;;;;;13.98;100.00;95990.97;1027076;28;20030;-71
2024/04/06 01:12:22;;;;;;;2.85;1.67;;;;;;;14.01;100.00;95992.25;1026798;28;20520;-71
2024/04/06 01:12:52;;;;;;;2.65;1.60;;;;;;;13.99;100.00;95991.78;1023582;28;20160;-72
2024/04/06 01:13:23;;;;;;;2.97;1.17;;;;;;;13.99;100.00;95989.13;1022855;29;20035;-71
2024/04/06 01:13:53;;;;;;;1.92;1.20;;;;;;;13.97;100.00;95991.25;1026786;28;20054;-71
2024/04/06 01:14:24;;;;;;;3.15;1.38;;;;;;;13.94;100.00;95995.22;1022739;29;20035;-71
2024/04/06 01:14:54;;;;;;;5.68;1.65;;;;;;;13.87;100.00;95989.47;1023087;28;20059;-71
2024/04/06 01:15:24;;;;;;;2.70;1.65;;;;;;;13.81;100.00;95985.31;1030847;28;20100;-72
2024/04/06 01:15:55;;;;;;;6.88;1.35;;;;;;;13.84;100.00;95998.72;1022814;28;20035;-71
2024/04/06 01:16:25;;;;;;;3.45;1.80;;;;;;;13.85;100.00;95995.03;1022897;29;20079;-72
2024/04/06 01:16:56;;;;;;;2.28;1.80;;;;;;;13.86;100.00;95993.19;1022791;28;20414;-71
2024/04/06 01:17:26;;;;;;;5.43;1.83;;;;;;;13.85;100.00;95981.84;1019182;28;20031;-71
2024/04/06 01:17:57;;;;;;;1.83;1.10;;;;;;;13.89;100.00;95982.09;1018782;29;20035;-71
2024/04/06 01:18:27;;;;;;;2.70;1.52;;;;;;;13.90;100.00;95976.53;1022746;28;20027;-72
2024/04/06 01:18:58;;;;;;;3.65;1.60;;;;;;;13.86;100.00;95972.88;1022817;29;20090;-72
2024/04/06 01:19:28;;;;;;;3.58;1.40;;;;;;;13.91;100.00;95980.72;1025087;28;20015;-71
2024/04/06 01:19:58;;;;;;;2.88;1.40;;;;;;;13.93;100.00;95975.19;1018764;29;20090;-71
2024/04/06 01:20:30;;;;;;;2.38;1.25;;;;;;;13.97;100.00;95972.78;1018165;28;20024;-72
2024/04/06 01:21:03;;;;;;;2.13;1.40;;;;;;;13.97;100.00;95976.19;1026396;28;20018;-72
2024/04/06 01:21:34;;;;;;;3.63;1.55;;;;;;;13.97;100.00;95978.06;1028164;28;20030;-71
2024/04/06 01:22:04;;;;;;;2.88;1.50;;;;;;;13.94;100.00;95973.34;1038887;28;20022;-72
2024/04/06 01:22:34;;;;;;;5.13;1.65;;;;;;;13.92;100.00;95971.00;1030940;28;20022;-71
2024/04/06 01:23:05;;;;;;;3.80;1.50;;;;;;;13.89;100.00;95971.53;1027254;28;20496;-71
2024/04/06 01:23:36;;;;;;;2.40;1.75;;;;;;;13.95;100.00;95980.97;1027060;28;20503;-71
2024/04/06 01:24:22;;;;;;;2.58;1.60;;;;;;;13.91;100.00;95970.16;1026871;28;20368;-71
2024/04/06 01:24:53;;;;;;;2.90;1.13;;;;;;;13.95;100.00;95974.91;1031594;28;20175;-71
2024/04/06 01:25:23;;;;;;;2.85;1.35;;;;;;;13.91;100.00;95964.91;1031043;28;20066;-71
2024/04/06 01:25:54;;;;;;;3.67;1.63;;;;;;;13.99;100.00;95974.09;1026834;28;20107;-71
2024/04/06 01:26:24;;;;;;;2.28;1.42;;;;;;;13.98;100.00;95969.84;1026670;28;20496;-72
2024/04/06 01:26:55;;;;;;;4.43;1.30;;;;;;;13.94;100.00;95968.84;1030852;28;20408;-71
2024/04/06 01:27:25;;;;;;;3.88;1.40;;;;;;;13.97;100.00;95972.78;1023011;28;20015;-71
2024/04/06 01:27:55;;;;;;;2.72;1.45;;;;;;;13.96;100.00;95976.50;1026838;28;20022;-71
2024/04/06 01:28:26;;;;;;;4.20;1.55;;;;;;;13.96;100.00;95981.75;1022746;29;20070;-71
2024/04/06 01:28:56;;;;;;;2.35;1.48;;;;;;;13.94;100.00;95976.75;1024072;28;20103;-71
2024/04/06 01:29:28;;;;;;;2.28;1.33;;;;;;;13.93;100.00;95977.81;1027189;28;20030;-71
2024/04/06 01:29:58;;;;;;;3.67;1.80;;;;;;;13.94;100.00;95979.38;1030597;28;20054;-72
2024/04/06 01:30:29;;;;;;;3.40;1.23;;;;;;;13.97;100.00;95975.41;1026649;28;20499;-72
2024/04/06 01:30:59;;;;;;;2.20;1.30;;;;;;;13.99;100.00;95975.94;1022678;29;20027;-71
2024/04/06 01:31:30;;;;;;;3.83;1.40;;;;;;;14.01;100.00;95974.56;1018990;29;20024;-71
2024/04/06 01:32:00;;;;;;;1.85;1.23;;;;;;;14.00;100.00;95977.50;1017105;29;20036;-71
2024/04/06 01:32:31;;;;;;;2.53;1.50;;;;;;;14.00;100.00;95977.50;1016657;28;20037;-71
2024/04/06 01:33:01;;;;;;;3.00;1.40;;;;;;;13.98;100.00;95982.25;1028832;28;20046;-71
2024/04/06 01:33:32;;;;;;;5.32;1.15;;;;;;;13.98;100.00;95979.63;1035166;28;20123;-71
2024/04/06 01:34:02;;;;;;;2.63;1.60;;;;;;;13.98;100.00;95984.91;1032740;28;20038;-71
2024/04/06 01:34:33;;;;;;;4.38;1.45;;;;;;;13.98;100.00;95976.97;1023110;28;20074;-71
2024/04/06 01:35:03;;;;;;;2.75;1.40;;;;;;;13.96;100.00;95971.22;1026718;28;20031;-72
2024/04/06 01:35:34;;;;;;;3.03;1.60;;;;;;;13.99;100.00;95973.31;1026991;28;20031;-71
2024/04/06 01:36:05;;;;;;;3.45;1.48;;;;;;;13.99;100.00;95978.56;1025084;28;20034;-71
2024/04/06 01:36:36;;;;;;;1.92;1.15;;;;;;;14.00;100.00;95974.88;1027344;28;20031;-72
2024/04/06 01:37:07;;;;;;;1.70;1.13;;;;;;;14.00;100.00;95974.88;1026519;28;20072;-71
2024/04/06 01:37:37;;;;;;;2.58;1.42;;;;;;;13.98;100.00;95974.34;1027412;28;20629;-71
2024/04/06 01:38:08;;;;;;;2.33;1.33;;;;;;;13.96;100.00;95976.50;1030573;28;20383;-72
2024/04/06 01:38:38;;;;;;;2.22;1.40;;;;;;;13.96;100.00;95976.50;1031072;28;20014;-71
2024/04/06 01:39:09;;;;;;;3.47;1.63;;;;;;;13.93;100.00;95966.50;1034095;28;20084;-72
2024/04/06 01:39:39;;;;;;;2.13;1.50;;;;;;;13.98;100.00;95979.63;1030938;28;20169;-72
2024/04/06 01:40:10;;;;;;;1.95;1.55;;;;;;;13.96;100.00;95981.75;1030718;28;20404;-72
2024/04/06 01:40:40;;;;;;;3.28;1.35;;;;;;;13.94;100.00;95974.13;1030877;28;20019;-73
2024/04/06 01:41:11;;;;;;;2.00;1.33;;;;;;;14.03;100.00;95975.09;1027515;28;20029;-72
2024/04/06 01:41:44;;;;;;;2.60;1.48;;;;;;;14.05;100.00;95975.63;1026229;28;20097;-71
2024/04/06 01:42:15;;;;;;;1.88;1.25;;;;;;;14.05;100.00;95977.44;1026763;28;20548;-71
2024/04/06 01:42:45;;;;;;;2.38;1.50;;;;;;;14.00;100.00;95964.31;1027903;28;20027;-72
2024/04/06 01:43:15;;;;;;;2.60;1.20;;;;;;;14.07;100.00;95976.09;1022918;28;20086;-71
2024/04/06 01:43:46;;;;;;;4.68;1.33;;;;;;;14.06;100.00;95977.19;1022910;29;20029;-72
2024/04/06 01:44:17;;;;;;;1.60;1.33;;;;;;;14.08;100.00;95974.25;1018589;29;20068;-72
2024/04/06 01:44:47;;;;;;;1.20;1.10;;;;;;;14.09;100.00;95976.63;1022789;28;20120;-72
2024/04/06 01:45:18;;;;;;;3.63;1.40;;;;;;;14.10;100.00;95972.13;1026658;28;20019;-72
2024/04/06 01:45:48;;;;;;;2.53;1.55;;;;;;;14.12;100.00;95975.28;1023029;28;20023;-72
2024/04/06 01:46:19;;;;;;;3.28;1.63;;;;;;;14.12;100.00;95975.28;1030828;28;20117;-72
2024/04/06 01:46:49;;;;;;;1.83;1.20;;;;;;;14.14;100.00;95973.13;1034590;28;20010;-71
2024/04/06 01:47:20;;;;;;;1.40;1.05;;;;;;;14.13;100.00;95966.28;1034990;28;20037;-72
2024/04/06 01:47:50;;;;;;;1.75;1.35;;;;;;;14.13;100.00;95966.28;1033886;28;20116;-71
2024/04/06 01:48:21;;;;;;;2.60;1.60;;;;;;;14.09;100.00;95960.78;1034642;28;20029;-72
2024/04/06 01:48:51;;;;;;;5.22;1.40;;;;;;;14.13;100.00;95966.28;1026779;28;20011;-72
2024/04/06 01:49:22;;;;;;;2.00;1.20;;;;;;;14.13;100.00;95966.28;1022297;29;20026;-72
2024/04/06 01:49:52;;;;;;;2.00;1.10;;;;;;;14.14;100.00;95967.88;1015860;29;20108;-72
2024/04/06 01:50:22;;;;;;;3.65;1.10;;;;;;;14.11;100.00;95965.78;1030919;28;20026;-72
2024/04/06 01:50:53;;;;;;;1.20;1.10;;;;;;;14.09;100.00;95970.56;1030751;28;20525;-72
2024/04/06 01:51:23;;;;;;;3.70;1.30;;;;;;;14.09;100.00;95960.78;1030806;28;20405;-72
2024/04/06 01:51:54;;;;;;;2.38;1.33;;;;;;;14.11;100.00;95957.84;1030604;28;20007;-72
2024/04/06 01:52:24;;;;;;;1.13;0.90;;;;;;;14.10;100.00;95966.84;1022889;29;20034;-72
2024/04/06 01:52:55;;;;;;;1.23;0.90;;;;;;;14.09;100.00;95962.66;1021965;28;20027;-71
2024/04/06 01:53:26;;;;;;;2.47;1.20;;;;;;;14.07;100.00;95957.63;1030629;28;20006;-72
2024/04/06 01:53:56;;;;;;;1.83;1.17;;;;;;;14.06;100.00;95961.34;1029702;28;20018;-72
2024/04/06 01:54:27;;;;;;;2.47;1.60;;;;;;;14.03;100.00;95961.91;1030778;28;20018;-72
2024/04/06 01:54:59;;;;;;;2.78;1.30;;;;;;;14.04;100.00;95970.59;1031950;28;20022;-73
2024/04/06 01:55:29;;;;;;;3.33;1.15;;;;;;;14.03;100.00;95963.75;1029164;28;20141;-71
2024/04/06 01:55:59;;;;;;;4.88;1.30;;;;;;;14.01;100.00;95963.25;1032199;28;20392;-72
2024/04/06 01:56:30;;;;;;;2.42;1.25;;;;;;;14.03;100.00;95969.03;1034863;28;20034;-72
2024/04/06 01:57:00;;;;;;;3.38;1.20;;;;;;;14.02;100.00;95968.25;1030601;28;20046;-71
2024/04/06 01:57:31;;;;;;;2.10;1.23;;;;;;;13.99;100.00;95966.16;1030563;28;20027;-72
2024/04/06 01:58:01;;;;;;;2.30;1.55;;;;;;;13.95;100.00;95953.78;1032402;28;20037;-72
2024/04/06 01:58:32;;;;;;;1.45;1.30;;;;;;;14.02;100.00;95962.19;1034735;28;20046;-72
2024/04/06 01:59:02;;;;;;;1.63;1.13;;;;;;;13.96;100.00;95955.38;1024934;28;20085;-71
2024/04/06 01:59:35;;;;;;;2.65;0.95;;;;;;;14.03;100.00;95961.13;1022835;28;20039;-72
2024/04/06 02:00:08;;;;;;;2.33;1.08;;;;;;;14.02;100.00;95960.34;1022359;28;20023;-72
2024/04/06 02:00:38;;;;;;;2.50;1.50;;;;;;;14.04;100.00;95963.47;1026650;28;20497;-71
2024/04/06 02:01:09;;;;;;;2.75;1.42;;;;;;;14.04;100.00;95962.69;1032610;28;20022;-71
2024/04/06 02:01:39;;;;;;;1.33;1.15;;;;;;;14.02;100.00;95964.84;1031481;28;20190;-71
2024/04/06 02:02:10;;;;;;;2.40;1.48;;;;;;;14.05;100.00;95966.88;1026227;28;20030;-71
2024/04/06 02:02:40;;;;;;;1.80;1.15;;;;;;;14.05;100.00;95964.25;1026773;28;20034;-72
2024/04/06 02:03:11;;;;;;;2.90;1.60;;;;;;;14.04;100.00;95962.69;1026954;28;20027;-72
2024/04/06 02:03:41;;;;;;;6.68;1.30;;;;;;;14.04;100.00;95962.69;1031132;28;20745;-72
2024/04/06 02:04:11;;;;;;;2.38;1.58;;;;;;;14.01;100.00;95963.25;1034644;28;20549;-71
2024/04/06 02:04:42;;;;;;;2.70;1.20;;;;;;;14.03;100.00;95971.66;1026831;28;20390;-71
2024/04/06 02:05:13;;;;;;;1.42;1.13;;;;;;;13.99;100.00;95971.44;1026052;28;20128;-71
2024/04/06 02:05:43;;;;;;;2.10;1.30;;;;;;;14.01;100.00;95968.50;1024175;28;20559;-72
2024/04/06 02:06:14;;;;;;;1.52;1.27;;;;;;;13.99;100.00;95971.44;1025249;28;20038;-71
2024/04/06 02:06:44;;;;;;;1.60;1.38;;;;;;;13.95;100.00;95969.63;1026769;28;20102;-71
2024/04/06 02:07:18;;;;;;;2.17;1.45;;;;;;;13.91;100.00;95970.16;1030658;28;20038;-71
2024/04/06 02:07:48;;;;;;;5.53;1.50;;;;;;;13.88;100.00;95965.47;1024478;28;20041;-72
2024/04/06 02:08:19;;;;;;;2.38;1.63;;;;;;;13.93;100.00;95977.81;1023037;28;20046;-71
2024/04/06 02:08:49;;;;;;;2.45;1.50;;;;;;;13.88;100.00;95976.03;1023108;28;20042;-72
2024/04/06 02:09:19;;;;;;;1.45;1.17;;;;;;;13.88;100.00;95977.84;1022127;28;20042;-71
2024/04/06 02:09:50;;;;;;;1.73;1.23;;;;;;;13.87;100.00;95979.72;1026686;28;20031;-73
2024/04/06 02:10:20;;;;;;;2.28;1.25;;;;;;;13.86;100.00;95980.00;1026459;28;20037;-71
2024/04/06 02:10:51;;;;;;;1.65;1.23;;;;;;;13.84;100.00;95987.41;1028108;28;20505;-71
2024/04/06 02:11:21;;;;;;;1.90;1.33;;;;;;;13.83;100.00;95991.88;1034743;28;20030;-71
2024/04/06 02:11:52;;;;;;;1.55;1.20;;;;;;;13.80;100.00;95986.38;1034771;28;20026;-71
2024/04/06 02:12:23;;;;;;;2.00;1.27;;;;;;;13.78;100.00;95991.94;1030605;28;20065;-72
2024/04/06 02:12:54;;;;;;;4.43;1.58;;;;;;;13.74;100.00;95988.25;1029380;28;20025;-72
2024/04/06 02:13:25;;;;;;;3.85;1.73;;;;;;;13.75;100.00;95992.50;1030828;28;20045;-71
2024/04/06 02:13:55;;;;;;;1.83;1.30;;;;;;;13.77;100.00;95990.34;1025799;28;20389;-71
2024/04/06 02:14:25;;;;;;;8.30;1.55;;;;;;;13.77;100.00;95995.63;1022401;29;20118;-71
2024/04/06 02:14:56;;;;;;;3.15;1.50;;;;;;;13.76;100.00;95999.34;1018838;29;20027;-71
2024/04/06 02:15:27;;;;;;;1.65;1.45;;;;;;;13.76;100.00;95996.69;1018420;29;20034;-72
2024/04/06 02:15:57;;;;;;;3.80;1.30;;;;;;;13.73;100.00;95994.59;1022661;28;20031;-71
2024/04/06 02:16:27;;;;;;;1.63;1.48;;;;;;;13.75;100.00;95997.78;1030462;28;20041;-71
2024/04/06 02:17:01;;;;;;;5.82;2.15;;;;;;;13.76;100.00;95994.06;1030718;28;20483;-71
2024/04/06 02:17:31;;;;;;;3.72;1.90;;;;;;;13.74;100.00;95998.81;1022621;28;20075;-72
2024/04/06 02:18:02;;;;;;;2.53;1.50;;;;;;;13.78;100.00;96002.50;1022524;29;20111;-71
2024/04/06 02:18:32;;;;;;;2.80;1.55;;;;;;;13.75;100.00;95986.41;1019113;29;20027;-71
2024/04/06 02:19:03;;;;;;;2.95;1.60;;;;;;;13.72;100.00;95987.75;1014246;29;20020;-69
2024/04/06 02:19:34;;;;;;;3.22;1.23;;;;;;;13.75;100.00;95992.50;1022867;29;20047;-71
2024/04/06 02:20:05;;;;;;;3.13;1.48;;;;;;;13.75;100.00;95992.50;1018447;29;20484;-70
2024/04/06 02:20:37;;;;;;;2.88;1.55;;;;;;;13.73;100.00;95996.47;1025460;28;20023;-71
2024/04/06 02:21:07;;;;;;;2.40;1.85;;;;;;;13.77;100.00;95994.84;1019056;29;20031;-73
2024/04/06 02:21:38;;;;;;;2.45;1.48;;;;;;;13.78;100.00;95996.41;1026751;28;20472;-71
2024/04/06 02:22:08;;;;;;;5.03;1.65;;;;;;;13.70;100.00;95989.88;1024638;28;20026;-70
2024/04/06 02:22:39;;;;;;;2.80;1.40;;;;;;;13.77;100.00;96000.91;1029857;28;20026;-70